Golden Empress — VRHM9 — position and weather

sailwx.info

Track history (hours):
 
Tides and Currents Weather Stations Pressure Air Temp Water Temp Dewpoint Dewpoint Depression Visibility Wind Speed Wind Dir Waves Ship Positions

Golden Empress

Last reported at 2017-Nov-19 19:59 UTC. Time now 2017-Nov-20 04:07 UTC.
Position N 35°54' W 009°06'.

Length 229 m; draft 14.6 m.

Type: Cargo ship. MMSI: 477962300.

Date/timePositionNaut miles runAvg speedWind from/ knotsBaromVisibWave heightAir tempDewpointWater temp
2017-Nov-19 19:59N 35°54' W 009°06'713.1
2017-Nov-19 19:28N 35°54' W 009°14'613.1
2017-Nov-19 19:00N 35°54' W 009°22'713.2
2017-Nov-19 18:30N 35°54' W 009°30'1713.2
2017-Nov-19 17:13N 35°53' W 009°51'313.3
2017-Nov-19 17:00N 35°53' W 009°54'1013.2
2017-Nov-19 16:14N 35°54' W 010°07'1813.3
2017-Nov-19 14:51N 35°54' W 010°30'913.2
2017-Nov-19 14:11N 35°54' W 010°40'313.3
2017-Nov-19 13:57N 35°54' W 010°44'6913.2
2017-Nov-19 08:41N 35°54' W 012°10'3 4.5
2017-Nov-19 08:01N 35°54' W 012°13'010.5
2017-Nov-19 08:00N 35°54' W 012°13'58613.3
2017-Nov-17 11:51N 35°54' W 024°17'1513.4
2017-Nov-17 10:44N 35°55' W 024°36'313.1
2017-Nov-17 10:30N 35°55' W 024°39'713.4
2017-Nov-17 10:00N 35°54' W 024°47'713.4
2017-Nov-17 09:30N 35°54' W 024°56'713.5
2017-Nov-17 09:00N 35°54' W 025°04'713.4
2017-Nov-17 08:30N 35°54' W 025°12'713.3
2017-Nov-17 08:00N 35°54' W 025°21'713.1
2017-Nov-17 07:30N 35°54' W 025°29'713.3
2017-Nov-17 07:00N 35°54' W 025°37'713.3
2017-Nov-17 06:30N 35°54' W 025°45'713.3
2017-Nov-17 06:00N 35°54' W 025°53'713.5
2017-Nov-17 05:29N 35°55' W 026°02'713.3
2017-Nov-17 04:59N 35°55' W 026°10'1013.2
2017-Nov-17 04:13N 35°55' W 026°23'  
Track history (hours):
 
Tides and Currents Weather Stations Pressure Air Temp Water Temp Dewpoint Dewpoint Depression Visibility Wind Speed Wind Dir Waves Ship Positions

Golden Empress

Last reported at 2017-Nov-19 19:59 UTC. Time now 2017-Nov-20 04:07 UTC.
Position N 35°54' W 009°06'.

Length 229 m; draft 14.6 m.

Type: Cargo ship. MMSI: 477962300.

Date/timePositionNaut miles runAvg speedWind from/ knotsBaromVisibWave heightAir tempDewpointWater temp
2017-Nov-19 19:59N 35°54' W 009°06'713.1
2017-Nov-19 19:28N 35°54' W 009°14'613.1
2017-Nov-19 19:00N 35°54' W 009°22'713.2
2017-Nov-19 18:30N 35°54' W 009°30'1713.2
2017-Nov-19 17:13N 35°53' W 009°51'313.3
2017-Nov-19 17:00N 35°53' W 009°54'1013.2
2017-Nov-19 16:14N 35°54' W 010°07'1813.3
2017-Nov-19 14:51N 35°54' W 010°30'913.2
2017-Nov-19 14:11N 35°54' W 010°40'313.3
2017-Nov-19 13:57N 35°54' W 010°44'6913.2
2017-Nov-19 08:41N 35°54' W 012°10'3 4.5
2017-Nov-19 08:01N 35°54' W 012°13'010.5
2017-Nov-19 08:00N 35°54' W 012°13'58613.3
2017-Nov-17 11:51N 35°54' W 024°17'1513.4
2017-Nov-17 10:44N 35°55' W 024°36'313.1
2017-Nov-17 10:30N 35°55' W 024°39'713.4
2017-Nov-17 10:00N 35°54' W 024°47'713.4
2017-Nov-17 09:30N 35°54' W 024°56'713.5
2017-Nov-17 09:00N 35°54' W 025°04'713.4
2017-Nov-17 08:30N 35°54' W 025°12'713.3
2017-Nov-17 08:00N 35°54' W 025°21'713.1
2017-Nov-17 07:30N 35°54' W 025°29'713.3
2017-Nov-17 07:00N 35°54' W 025°37'713.3
2017-Nov-17 06:30N 35°54' W 025°45'713.3
2017-Nov-17 06:00N 35°54' W 025°53'713.5
2017-Nov-17 05:29N 35°55' W 026°02'713.3
2017-Nov-17 04:59N 35°55' W 026°10'1013.2
2017-Nov-17 04:13N 35°55' W 026°23'  

Dump ship's entire track history